This is the latest recevied weather packets stored in our database for station/object EA1EXV-11. If no packets are shown the sender has not sent any weather packets the latest 10 day(s).
| Time | Temp. | Humidity | Pressure | Rain* | Wind** | Luminosity | Snow |
|---|---|---|---|---|---|---|---|
| 1777910706 | 14.44° C | 64% | 1016.7 hPa | - | - | - | - |
| 1777909806 | 13.89° C | 64% | 1016.6 hPa | - | - | - | - |
| 1777908906 | 14.44° C | 63% | 1016.6 hPa | - | - | - | - |
| 1777908006 | 15° C | 63% | 1016.6 hPa | - | - | - | - |
| 1777907106 | 17.22° C | 62% | 1016.7 hPa | - | - | - | - |
| 1777906206 | 15° C | 62% | 1016.8 hPa | - | - | - | - |
| 1777905306 | 14.44° C | 61% | 1016.8 hPa | - | - | - | - |
| 1777904406 | 13.89° C | 59% | 1016.6 hPa | - | - | - | - |
| 1777903505 | 16.67° C | 54% | 1016.8 hPa | - | - | - | - |
| 1777902605 | 16.67° C | 54% | 1016.7 hPa | - | - | - | - |
| 1777901705 | 16.67° C | 52% | 1016.6 hPa | - | - | - | - |
| 1777900805 | 20.56° C | 49% | 1016.6 hPa | - | - | - | - |
| 1777899904 | 20.56° C | 50% | 1016.8 hPa | - | - | - | - |
| 1777899004 | 23.89° C | 50% | 1016.6 hPa | - | - | - | - |
| 1777898104 | 23.89° C | 54% | 1016.7 hPa | - | - | - | - |
| 1777897204 | 21.67° C | 59% | 1016.7 hPa | - | - | - | - |
| 1777896304 | 17.78° C | 65% | 1016.8 hPa | - | - | - | - |
| 1777895404 | 16.11° C | 67% | 1017 hPa | - | - | - | - |
| 1777894504 | 16.11° C | 68% | 1017 hPa | - | - | - | - |
| 1777893604 | 18.33° C | 68% | 1017.1 hPa | - | - | - | - |
| 1777892704 | 17.22° C | 73% | 1017 hPa | - | - | - | - |
| 1777891804 | 15.56° C | 75% | 1017.1 hPa | - | - | - | - |
| 1777890903 | 16.67° C | 76% | 1017.1 hPa | - | - | - | - |
| 1777890003 | 15.56° C | 78% | 1017 hPa | - | - | - | - |
| 1777889103 | 15.56° C | 80% | 1017.1 hPa | - | - | - | - |
* Rain since midnight (hover to see other rain measurements)
** Current wind speed in m/s (hover to see current wind gust speed)